createdAt,value
2017-09-21T00:01:04.926Z,7.40
2017-09-21T00:03:32.448Z,7.40
2017-09-21T00:05:59.936Z,7.40
2017-09-21T00:08:27.429Z,7.40
2017-09-21T00:10:54.916Z,7.30
2017-09-21T00:13:22.419Z,7.20
2017-09-21T00:15:49.908Z,7.10
2017-09-21T00:18:18.163Z,7.20
2017-09-21T00:20:45.637Z,7.20
2017-09-21T00:23:14.672Z,7.10
2017-09-21T00:25:42.147Z,7.10
2017-09-21T00:28:09.629Z,6.70
2017-09-21T00:30:37.125Z,6.70
2017-09-21T00:33:05.359Z,6.90
2017-09-21T00:35:32.895Z,6.90
2017-09-21T00:38:00.367Z,7.00
2017-09-21T00:40:27.871Z,6.90
2017-09-21T00:42:55.359Z,6.90
2017-09-21T00:45:22.858Z,6.90
2017-09-21T00:47:50.336Z,6.70
2017-09-21T00:50:17.827Z,6.40
2017-09-21T00:52:46.069Z,6.50
2017-09-21T00:55:13.564Z,6.50
2017-09-21T00:57:41.025Z,6.70
2017-09-21T01:00:08.522Z,6.70
2017-09-21T01:02:36.114Z,6.80
2017-09-21T01:05:03.612Z,6.80
2017-09-21T01:07:31.079Z,6.90
2017-09-21T01:09:58.594Z,6.90
2017-09-21T01:12:26.884Z,6.90
2017-09-21T01:14:55.119Z,6.90
2017-09-21T01:17:22.631Z,6.90
2017-09-21T01:19:50.859Z,6.70
2017-09-21T01:22:18.360Z,6.70
2017-09-21T01:24:45.827Z,6.80
2017-09-21T01:27:13.315Z,6.60
2017-09-21T01:29:40.819Z,6.50
2017-09-21T01:32:09.058Z,6.20
2017-09-21T01:34:36.537Z,6.20
2017-09-21T01:37:04.034Z,5.90
2017-09-21T01:39:31.564Z,5.80
2017-09-21T01:41:59.032Z,5.70
2017-09-21T01:44:27.326Z,5.80
2017-09-21T01:46:55.566Z,6.20
2017-09-21T01:49:23.026Z,6.20
2017-09-21T01:51:50.519Z,6.40
2017-09-21T01:54:18.016Z,6.60
2017-09-21T01:56:45.476Z,6.50
2017-09-21T01:59:13.011Z,6.50
2017-09-21T02:01:40.471Z,6.30
2017-09-21T02:04:07.939Z,6.40
2017-09-21T02:06:35.444Z,6.50
2017-09-21T02:09:02.951Z,6.50
2017-09-21T02:11:30.479Z,6.40
2017-09-21T02:13:58.694Z,6.50
2017-09-21T02:16:26.189Z,6.50
2017-09-21T02:18:53.690Z,6.50
2017-09-21T02:21:21.202Z,6.20
2017-09-21T02:23:48.707Z,5.90
2017-09-21T02:26:16.943Z,6.00
2017-09-21T02:28:45.979Z,6.20
2017-09-21T02:31:13.463Z,6.20
2017-09-21T02:33:40.919Z,6.30
2017-09-21T02:36:08.428Z,6.40
2017-09-21T02:38:36.692Z,6.20
2017-09-21T02:41:04.176Z,6.20
2017-09-21T02:43:32.410Z,5.90
2017-09-21T02:45:59.922Z,5.90
2017-09-21T02:48:27.420Z,6.00
2017-09-21T02:50:54.899Z,6.10
2017-09-21T02:53:22.404Z,6.30
2017-09-21T02:55:49.869Z,6.20
2017-09-21T02:58:17.360Z,5.80
2017-09-21T03:00:44.859Z,5.70
2017-09-21T03:03:13.111Z,5.50
2017-09-21T03:05:40.587Z,5.50
2017-09-21T03:08:08.842Z,5.60
2017-09-21T03:10:36.347Z,5.60
2017-09-21T03:13:03.807Z,5.80
2017-09-21T03:15:31.307Z,6.10
2017-09-21T03:17:58.787Z,6.20
2017-09-21T03:20:26.268Z,6.10
2017-09-21T03:22:54.519Z,6.10
2017-09-21T03:25:21.994Z,6.10
2017-09-21T03:27:50.272Z,6.20
2017-09-21T03:30:18.507Z,6.00
2017-09-21T03:32:45.982Z,6.00
2017-09-21T03:35:13.484Z,5.50
2017-09-21T03:37:41.708Z,5.50
2017-09-21T03:40:09.217Z,5.50
2017-09-21T03:42:36.701Z,5.60
2017-09-21T03:45:04.200Z,5.80
2017-09-21T03:47:31.674Z,5.90
2017-09-21T03:49:59.907Z,5.90
2017-09-21T03:52:27.429Z,5.90
2017-09-21T03:54:54.894Z,5.80
2017-09-21T03:57:22.440Z,5.30
2017-09-21T03:59:50.680Z,5.60
2017-09-21T04:02:18.186Z,5.60
2017-09-21T04:04:45.681Z,5.20
2017-09-21T04:07:13.143Z,5.60
2017-09-21T04:09:40.650Z,5.80
2017-09-21T04:12:08.873Z,5.40
2017-09-21T04:14:36.375Z,5.30
2017-09-21T04:17:04.634Z,5.20
2017-09-21T04:19:32.131Z,5.20
2017-09-21T04:21:59.600Z,5.30
2017-09-21T04:24:27.063Z,5.00
2017-09-21T04:26:54.562Z,4.90
2017-09-21T04:29:22.031Z,4.90
2017-09-21T04:31:49.524Z,5.10
2017-09-21T04:34:16.999Z,5.30
2017-09-21T04:36:44.495Z,5.50
2017-09-21T04:39:11.992Z,5.60
2017-09-21T04:41:40.246Z,5.70
2017-09-21T04:44:08.509Z,5.60
2017-09-21T04:46:35.989Z,5.60
2017-09-21T04:49:04.263Z,5.60
2017-09-21T04:51:32.490Z,5.40
2017-09-21T04:54:00.014Z,5.40
2017-09-21T04:56:28.237Z,4.70
2017-09-21T04:58:55.731Z,4.70
2017-09-21T05:01:23.959Z,5.00
2017-09-21T05:03:51.420Z,4.90
2017-09-21T05:06:19.016Z,5.00
2017-09-21T05:08:47.259Z,5.20
2017-09-21T05:11:14.759Z,5.10
2017-09-21T05:13:42.219Z,5.10
2017-09-21T05:16:10.474Z,5.20
2017-09-21T05:18:37.975Z,5.10
2017-09-21T05:21:06.214Z,5.30
2017-09-21T05:23:33.695Z,5.30
2017-09-21T05:26:01.930Z,5.20
2017-09-21T05:28:29.438Z,5.10
2017-09-21T05:30:57.666Z,5.10
2017-09-21T05:33:25.124Z,5.00
2017-09-21T05:35:52.611Z,5.00
2017-09-21T05:38:20.835Z,5.10
2017-09-21T05:40:48.341Z,5.10
2017-09-21T05:43:15.791Z,5.10
2017-09-21T05:45:43.291Z,5.20
2017-09-21T05:48:10.781Z,5.30
2017-09-21T05:50:38.262Z,5.40
2017-09-21T05:53:05.771Z,5.40
2017-09-21T05:55:33.253Z,5.50
2017-09-21T05:58:00.764Z,5.40
2017-09-21T06:00:29.003Z,5.40
2017-09-21T06:02:56.516Z,5.40
2017-09-21T06:05:24.737Z,5.50
2017-09-21T06:07:52.216Z,5.50
2017-09-21T06:10:19.756Z,5.50
2017-09-21T06:12:47.218Z,5.30
2017-09-21T06:15:14.718Z,5.10
2017-09-21T06:17:43.012Z,5.00
2017-09-21T06:20:10.500Z,4.90
2017-09-21T06:22:37.970Z,4.60
2017-09-21T06:25:05.471Z,4.70
2017-09-21T06:27:33.711Z,5.50
2017-09-21T06:30:01.222Z,5.50
2017-09-21T06:32:28.723Z,5.50
2017-09-21T06:34:56.256Z,5.70
2017-09-21T06:37:23.760Z,5.60
2017-09-21T06:39:51.228Z,5.60
2017-09-21T06:42:19.511Z,5.90
2017-09-21T06:44:47.740Z,6.00
2017-09-21T06:47:15.228Z,6.00
2017-09-21T06:49:42.710Z,6.20
2017-09-21T06:52:10.956Z,7.30
2017-09-21T06:54:38.446Z,7.30
2017-09-21T06:57:06.696Z,7.30
2017-09-21T06:59:34.183Z,7.30
2017-09-21T07:02:02.762Z,7.00
2017-09-21T07:04:31.008Z,6.90
2017-09-21T07:06:58.492Z,6.90
2017-09-21T07:09:26.727Z,7.00
2017-09-21T07:11:54.215Z,6.90
2017-09-21T07:14:21.683Z,7.00
2017-09-21T07:16:49.971Z,7.10
2017-09-21T07:19:18.215Z,7.40
2017-09-21T07:21:45.688Z,7.30
2017-09-21T07:24:13.171Z,7.20
2017-09-21T07:26:40.645Z,7.10
2017-09-21T07:29:08.140Z,7.40
2017-09-21T07:31:35.603Z,7.60
2017-09-21T07:34:03.110Z,8.00
2017-09-21T07:36:30.591Z,8.40
2017-09-21T07:38:58.070Z,8.40
2017-09-21T07:41:25.555Z,8.00
2017-09-21T07:43:53.830Z,8.20
2017-09-21T07:46:22.087Z,8.40
2017-09-21T07:48:49.610Z,8.30
2017-09-21T07:51:17.209Z,8.70
2017-09-21T07:53:44.675Z,8.90
2017-09-21T07:56:12.178Z,8.50
2017-09-21T07:58:39.660Z,9.00
2017-09-21T08:01:07.168Z,9.20
2017-09-21T08:03:35.460Z,9.50
2017-09-21T08:06:02.943Z,9.50
2017-09-21T08:08:30.439Z,9.70
2017-09-21T08:10:57.961Z,9.40
2017-09-21T08:13:25.423Z,9.40
2017-09-21T08:15:52.924Z,10.00
2017-09-21T08:18:20.422Z,10.40
2017-09-21T08:20:47.942Z,10.30
2017-09-21T08:23:15.418Z,10.70
2017-09-21T08:25:43.680Z,10.30
2017-09-21T08:28:11.150Z,10.30
2017-09-21T08:30:39.435Z,11.30
2017-09-21T08:33:07.691Z,11.40
2017-09-21T08:35:35.176Z,11.40
2017-09-21T08:38:02.678Z,11.70
2017-09-21T08:40:30.183Z,11.90
2017-09-21T08:42:58.447Z,12.20
2017-09-21T08:45:25.924Z,12.20
2017-09-21T08:47:54.171Z,12.60
2017-09-21T08:50:21.659Z,12.60
2017-09-21T08:52:49.892Z,12.50
2017-09-21T08:55:17.440Z,12.50
2017-09-21T08:57:44.946Z,12.80
2017-09-21T09:00:13.283Z,12.70
2017-09-21T09:02:40.774Z,12.90
2017-09-21T09:05:08.251Z,12.90
2017-09-21T09:07:36.528Z,13.30
2017-09-21T09:10:04.759Z,13.20
2017-09-21T09:12:32.255Z,13.10
2017-09-21T09:15:00.511Z,13.40
2017-09-21T09:17:29.512Z,13.10
2017-09-21T09:19:57.011Z,13.10
2017-09-21T09:22:24.490Z,13.10
2017-09-21T09:24:51.998Z,13.50
2017-09-21T09:27:19.479Z,13.90
2017-09-21T09:29:46.958Z,13.80
2017-09-21T09:32:14.471Z,14.00
2017-09-21T09:34:42.721Z,13.70
2017-09-21T09:37:10.248Z,13.70
2017-09-21T09:39:37.706Z,13.90
2017-09-21T09:42:05.210Z,13.80
2017-09-21T09:44:32.719Z,14.00
2017-09-21T09:47:00.212Z,13.80
2017-09-21T09:49:27.675Z,14.10
2017-09-21T09:51:55.195Z,14.00
2017-09-21T09:54:22.692Z,14.00
2017-09-21T09:56:50.248Z,14.10
2017-09-21T09:59:17.744Z,14.20
2017-09-21T10:01:46.664Z,14.10
2017-09-21T10:04:14.168Z,14.10
2017-09-21T10:06:41.640Z,14.00
2017-09-21T10:09:09.908Z,14.50
2017-09-21T10:11:37.398Z,14.50
2017-09-21T10:14:05.684Z,14.30
2017-09-21T10:16:33.171Z,14.20
2017-09-21T10:19:00.662Z,14.20
2017-09-21T10:21:28.151Z,14.00
2017-09-21T10:23:57.012Z,14.40
2017-09-21T10:26:24.528Z,14.40
2017-09-21T10:28:52.028Z,14.10
2017-09-21T10:31:19.500Z,14.50
2017-09-21T10:33:47.741Z,14.20
2017-09-21T10:36:15.219Z,14.20
2017-09-21T10:38:42.739Z,14.50
2017-09-21T10:41:10.239Z,14.60
2017-09-21T10:43:37.730Z,14.70
2017-09-21T10:46:05.978Z,14.60
2017-09-21T10:48:34.984Z,14.70
2017-09-21T10:51:04.003Z,14.60
2017-09-21T10:53:31.487Z,14.60
2017-09-21T10:55:58.948Z,14.70
2017-09-21T10:58:26.448Z,14.70
2017-09-21T11:00:55.427Z,14.60
2017-09-21T11:03:22.937Z,14.60
2017-09-21T11:05:50.400Z,14.80
2017-09-21T11:08:17.903Z,14.70
2017-09-21T11:10:45.391Z,14.90
2017-09-21T11:13:13.610Z,14.90
2017-09-21T11:15:41.101Z,14.90
2017-09-21T11:18:08.595Z,15.00
2017-09-21T11:20:36.875Z,14.70
2017-09-21T11:23:05.106Z,15.00
2017-09-21T11:25:32.560Z,15.00
2017-09-21T11:28:00.051Z,15.10
2017-09-21T11:30:28.334Z,14.90
2017-09-21T11:32:56.702Z,15.00
2017-09-21T11:35:24.926Z,15.10
2017-09-21T11:37:52.434Z,15.10
2017-09-21T11:40:19.953Z,15.20
2017-09-21T11:42:47.451Z,15.40
2017-09-21T11:45:14.906Z,15.40
2017-09-21T11:47:42.371Z,15.30
2017-09-21T11:50:10.647Z,15.20
2017-09-21T11:52:38.875Z,15.20
2017-09-21T11:55:06.381Z,15.20
2017-09-21T11:57:35.366Z,15.10
2017-09-21T12:00:03.669Z,15.10
2017-09-21T12:02:31.891Z,15.30
2017-09-21T12:04:59.379Z,15.30
2017-09-21T12:07:27.639Z,15.10
2017-09-21T12:09:55.123Z,15.10
2017-09-21T12:12:23.396Z,15.30
2017-09-21T12:14:50.871Z,15.20
2017-09-21T12:17:19.093Z,15.20
2017-09-21T12:19:46.607Z,15.20
2017-09-21T12:22:14.830Z,15.50
2017-09-21T12:24:42.313Z,15.50
2017-09-21T12:27:09.838Z,15.40
2017-09-21T12:29:37.315Z,15.30
2017-09-21T12:32:05.266Z,15.60
2017-09-21T12:34:32.776Z,15.80
2017-09-21T12:37:00.236Z,15.80
2017-09-21T12:39:28.496Z,15.60
2017-09-21T12:41:55.988Z,15.60
2017-09-21T12:44:24.232Z,15.60
2017-09-21T12:46:53.232Z,15.60
2017-09-21T12:49:20.701Z,15.60
2017-09-21T12:51:48.960Z,15.80
2017-09-21T12:54:17.939Z,15.70
2017-09-21T12:56:45.421Z,15.70
2017-09-21T12:59:13.691Z,15.90
2017-09-21T13:01:41.198Z,15.90
2017-09-21T13:04:08.696Z,15.90
2017-09-21T13:06:36.155Z,15.90
2017-09-21T13:09:03.669Z,15.90
2017-09-21T13:11:31.137Z,15.70
2017-09-21T13:13:58.649Z,15.80
2017-09-21T13:16:26.133Z,15.90
2017-09-21T13:18:54.369Z,15.80
2017-09-21T13:21:21.873Z,15.80
2017-09-21T13:23:49.349Z,15.90
2017-09-21T13:26:16.826Z,15.70
2017-09-21T13:28:44.312Z,15.80
2017-09-21T13:31:11.812Z,16.00
2017-09-21T13:33:39.305Z,15.90
2017-09-21T13:36:06.762Z,16.10
2017-09-21T13:38:34.269Z,16.00
2017-09-21T13:41:02.511Z,16.00
2017-09-21T13:43:30.020Z,16.00
2017-09-21T13:45:57.476Z,16.10
2017-09-21T13:48:25.003Z,16.00
2017-09-21T13:50:52.501Z,15.90
2017-09-21T13:53:19.998Z,16.00
2017-09-21T13:55:47.490Z,16.00
2017-09-21T13:58:15.728Z,15.70
2017-09-21T14:00:43.231Z,15.70
2017-09-21T14:03:11.503Z,16.00
2017-09-21T14:05:39.767Z,16.10
2017-09-21T14:08:07.270Z,16.10
2017-09-21T14:10:34.767Z,16.10
2017-09-21T14:13:02.229Z,16.10
2017-09-21T14:15:29.734Z,16.10
2017-09-21T14:17:57.220Z,16.20
2017-09-21T14:20:24.689Z,16.20
2017-09-21T14:22:52.200Z,16.10
2017-09-21T14:25:20.436Z,16.00
2017-09-21T14:27:47.931Z,16.00
2017-09-21T14:30:16.296Z,16.20
2017-09-21T14:32:44.580Z,16.10
2017-09-21T14:35:12.831Z,16.10
2017-09-21T14:37:40.319Z,16.10
2017-09-21T14:40:08.609Z,16.10
2017-09-21T14:42:36.855Z,16.30
2017-09-21T14:45:04.368Z,16.30
2017-09-21T14:47:31.836Z,16.30
2017-09-21T14:49:59.305Z,16.40
2017-09-21T14:52:27.569Z,16.20
2017-09-21T14:54:55.036Z,16.20
2017-09-21T14:57:22.549Z,16.10
2017-09-21T14:59:50.779Z,16.30
2017-09-21T15:02:19.034Z,16.30
2017-09-21T15:04:46.527Z,16.20
2017-09-21T15:07:14.002Z,16.10
2017-09-21T15:09:42.270Z,16.10
2017-09-21T15:12:09.761Z,16.10
2017-09-21T15:14:37.987Z,16.20
2017-09-21T15:17:05.465Z,16.20
2017-09-21T15:19:32.945Z,16.30
2017-09-21T15:22:01.271Z,16.20
2017-09-21T15:24:28.777Z,16.20
2017-09-21T15:26:57.077Z,16.10
2017-09-21T15:29:25.382Z,16.10
2017-09-21T15:31:52.840Z,16.30
2017-09-21T15:34:20.354Z,16.30
2017-09-21T15:36:48.595Z,16.00
2017-09-21T15:39:16.107Z,16.00
2017-09-21T15:41:43.571Z,15.90
2017-09-21T15:44:11.080Z,15.90
2017-09-21T15:46:38.595Z,16.00
2017-09-21T15:49:06.088Z,15.90
2017-09-21T15:51:33.622Z,15.80
2017-09-21T15:54:01.109Z,15.70
2017-09-21T15:56:28.609Z,15.80
2017-09-21T15:58:56.079Z,15.60
2017-09-21T16:01:23.589Z,15.50
2017-09-21T16:03:51.443Z,15.50
2017-09-21T16:06:18.960Z,15.20
2017-09-21T16:08:46.441Z,15.10
2017-09-21T16:11:13.903Z,15.00
2017-09-21T16:13:42.471Z,15.00
2017-09-21T16:16:09.960Z,15.00
2017-09-21T16:18:37.514Z,14.90
2017-09-21T16:21:05.001Z,14.90
2017-09-21T16:23:32.493Z,14.80
2017-09-21T16:25:59.968Z,14.70
2017-09-21T16:28:27.466Z,14.60
2017-09-21T16:30:54.957Z,14.60
2017-09-21T16:33:23.201Z,14.60
2017-09-21T16:35:50.720Z,14.60
2017-09-21T16:38:18.194Z,14.60
2017-09-21T16:40:46.920Z,14.70
2017-09-21T16:43:15.184Z,14.60
2017-09-21T16:45:42.660Z,14.70
2017-09-21T16:48:10.938Z,14.30
2017-09-21T16:50:39.619Z,14.20
2017-09-21T16:53:07.130Z,14.10
2017-09-21T16:55:34.604Z,14.00
2017-09-21T16:58:02.118Z,13.70
2017-09-21T17:00:30.358Z,13.70
2017-09-21T17:02:57.858Z,13.70
2017-09-21T17:05:26.133Z,13.60
2017-09-21T17:07:54.427Z,13.30
2017-09-21T17:10:21.902Z,13.30
2017-09-21T17:12:49.384Z,13.10
2017-09-21T17:15:16.886Z,12.90
2017-09-21T17:17:44.361Z,12.80
2017-09-21T17:20:11.881Z,12.80
2017-09-21T17:22:39.349Z,12.70
2017-09-21T17:25:07.584Z,12.30
2017-09-21T17:27:35.069Z,12.30
2017-09-21T17:30:02.571Z,12.40
2017-09-21T17:32:30.058Z,12.40
2017-09-21T17:34:57.532Z,12.40
2017-09-21T17:37:25.063Z,12.20
2017-09-21T17:39:52.527Z,12.20
2017-09-21T17:42:19.991Z,11.90
2017-09-21T17:44:47.492Z,11.80
2017-09-21T17:47:15.780Z,11.50
2017-09-21T17:49:43.311Z,11.40
2017-09-21T17:52:10.781Z,11.30
2017-09-21T17:54:39.060Z,11.00
2017-09-21T17:57:07.307Z,11.10
2017-09-21T17:59:35.571Z,11.20
2017-09-21T18:02:03.069Z,11.10
2017-09-21T18:04:30.580Z,11.20
2017-09-21T18:06:58.052Z,11.20
2017-09-21T18:09:25.593Z,11.30
2017-09-21T18:11:53.127Z,11.30
2017-09-21T18:14:20.609Z,11.30
2017-09-21T18:16:48.116Z,11.30
2017-09-21T18:19:15.590Z,11.30
2017-09-21T18:21:43.871Z,10.80
2017-09-21T18:24:12.170Z,10.70
2017-09-21T18:26:40.499Z,10.70
2017-09-21T18:29:08.001Z,10.70
2017-09-21T18:31:35.480Z,10.50
2017-09-21T18:34:03.387Z,10.60
2017-09-21T18:36:30.859Z,10.60
2017-09-21T18:38:59.114Z,10.20
2017-09-21T18:41:26.641Z,10.20
2017-09-21T18:43:54.148Z,10.30
2017-09-21T18:46:21.660Z,10.40
2017-09-21T18:48:49.153Z,10.50
2017-09-21T18:51:16.643Z,10.60
2017-09-21T18:53:44.884Z,10.50
2017-09-21T18:56:12.373Z,10.50
2017-09-21T18:58:40.651Z,10.20
2017-09-21T19:01:08.930Z,9.80
2017-09-21T19:03:37.179Z,9.60
2017-09-21T19:06:04.657Z,9.60
2017-09-21T19:08:32.927Z,9.80
2017-09-21T19:11:01.166Z,9.90
2017-09-21T19:13:28.638Z,9.90
2017-09-21T19:15:56.139Z,10.00
2017-09-21T19:18:24.389Z,9.90
2017-09-21T19:20:51.852Z,9.90
2017-09-21T19:23:19.351Z,10.00
2017-09-21T19:25:46.836Z,9.90
2017-09-21T19:28:14.349Z,9.90
2017-09-21T19:30:42.588Z,9.80
2017-09-21T19:33:10.061Z,9.80
2017-09-21T19:35:37.577Z,9.80
2017-09-21T19:38:05.089Z,9.60
2017-09-21T19:40:33.877Z,9.60
2017-09-21T19:43:01.514Z,9.60
2017-09-21T19:45:29.016Z,9.60
2017-09-21T19:47:56.499Z,9.60
2017-09-21T19:50:24.027Z,9.60
2017-09-21T19:52:52.658Z,9.50
2017-09-21T19:55:20.161Z,9.50
2017-09-21T19:57:48.537Z,9.50
2017-09-21T20:00:16.777Z,9.30
2017-09-21T20:02:44.267Z,9.30
2017-09-21T20:05:12.507Z,9.30
2017-09-21T20:07:40.473Z,9.40
2017-09-21T20:10:07.959Z,9.40
2017-09-21T20:12:35.796Z,9.40
2017-09-21T20:15:03.276Z,9.30
2017-09-21T20:17:30.908Z,9.10
2017-09-21T20:19:59.379Z,8.90
2017-09-21T20:22:26.843Z,9.00
2017-09-21T20:24:54.388Z,9.10
2017-09-21T20:27:21.868Z,9.10
2017-09-21T20:29:49.337Z,9.10
2017-09-21T20:32:16.824Z,8.90
2017-09-21T20:34:44.401Z,8.90
2017-09-21T20:37:12.777Z,8.90
2017-09-21T20:39:40.904Z,8.90
2017-09-21T20:42:08.396Z,8.80
2017-09-21T20:44:35.906Z,8.60
2017-09-21T20:47:03.366Z,8.60
2017-09-21T20:49:33.002Z,8.50
2017-09-21T21:05:00.589Z,8.40
2017-09-21T21:07:28.863Z,8.60
2017-09-21T21:09:57.096Z,8.50
2017-09-21T21:12:24.629Z,8.50
2017-09-21T21:14:52.101Z,8.50
2017-09-21T21:17:19.589Z,8.50
2017-09-21T21:19:47.104Z,8.50
2017-09-21T21:22:14.582Z,8.50
2017-09-21T21:24:42.078Z,8.40
2017-09-21T21:27:09.580Z,8.40
2017-09-21T21:29:37.080Z,8.30
2017-09-21T21:32:05.339Z,8.30
2017-09-21T21:34:32.818Z,8.20
2017-09-21T21:37:00.323Z,8.00
2017-09-21T21:39:27.814Z,8.10
2017-09-21T21:41:55.330Z,8.10
2017-09-21T21:44:23.590Z,8.10
2017-09-21T21:46:51.083Z,8.10
2017-09-21T21:49:18.592Z,8.10
2017-09-21T21:51:47.266Z,8.20
2017-09-21T21:54:14.780Z,8.10
2017-09-21T21:56:43.067Z,8.10
2017-09-21T21:59:10.539Z,8.00
2017-09-21T22:01:38.071Z,8.10
2017-09-21T22:04:05.552Z,7.90
2017-09-21T22:06:33.055Z,7.70
2017-09-21T22:09:00.543Z,7.90
2017-09-21T22:11:28.819Z,7.80
2017-09-21T22:13:57.066Z,7.90
2017-09-21T22:16:24.559Z,7.80
2017-09-21T22:18:52.867Z,7.80
2017-09-21T22:21:20.351Z,7.80
2017-09-21T22:23:47.847Z,7.70
2017-09-21T22:26:16.132Z,7.80
2017-09-21T22:28:43.640Z,7.70
2017-09-21T22:31:11.169Z,7.70
2017-09-21T22:33:38.636Z,7.70
2017-09-21T22:36:06.103Z,7.70
2017-09-21T22:38:33.612Z,7.70
2017-09-21T22:41:01.103Z,7.60
2017-09-21T22:43:28.588Z,7.60
2017-09-21T22:45:56.819Z,7.50
2017-09-21T22:48:24.351Z,7.50
2017-09-21T22:50:51.838Z,7.50
2017-09-21T22:53:20.131Z,7.40
2017-09-21T22:55:47.638Z,7.40
2017-09-21T22:58:15.132Z,7.40
2017-09-21T23:00:42.640Z,7.50
2017-09-21T23:03:10.159Z,7.40
2017-09-21T23:05:37.619Z,7.40
2017-09-21T23:08:05.096Z,7.40
2017-09-21T23:10:32.600Z,7.40
2017-09-21T23:13:00.063Z,7.40
2017-09-21T23:15:27.570Z,7.30
2017-09-21T23:17:55.038Z,7.30
2017-09-21T23:20:22.543Z,7.30
2017-09-21T23:22:50.806Z,7.20
2017-09-21T23:25:18.346Z,7.20
2017-09-21T23:27:45.835Z,7.20
2017-09-21T23:30:13.331Z,7.20
2017-09-21T23:32:40.820Z,7.20
2017-09-21T23:35:08.289Z,7.10
2017-09-21T23:37:35.779Z,7.10
2017-09-21T23:40:04.008Z,7.10
2017-09-21T23:42:31.532Z,7.10
2017-09-21T23:44:59.024Z,7.10
2017-09-21T23:47:26.519Z,7.00
2017-09-21T23:49:54.016Z,7.00
2017-09-21T23:52:21.483Z,7.00
2017-09-21T23:54:49.514Z,6.90
2017-09-21T23:57:17.750Z,6.80
2017-09-21T23:59:45.264Z,6.80
